PWSweather.com
Personal Weather Stations
Station Observations
ELGHEKO
El Gheko Neighborhood Association, Tucson, AZ 85710

El Gheko Neighborhood AssociationTucson, AZ 85710

Lat: 32.226108, Lon: -110.84443

Elevation: 2598

Station Type: Davis 6153 Vantage Pro 2

http://www.elgheko.us

Latest ConditionsUpdated 10:25:00 AM MST Friday, Feb 22, 2019
Currently Today's Max Today's Min Today's Average
Temperature 32.3°F0.2°C 43.3°F6.3°C 31.9°F-0.1°C 37.6°F3.1°C
Dew Point 30.0°F-1.1°C 38.7°F3.7°C 29.3°F-1.5°C 33.9°F1.1°C
Winds Calm Calm 7.0 mph -11.3 kmh - - 2.1 mph 3.4 kmh
Wind Gusts 2.0 mph3.2 kmh 21.0 mph33.8 kmh - -
Humidity 91% 91% 78% 87%
Pressure 29.89 in1012.2 mb 29.90 in1012.5 mb 29.74 in1007.1 mb -
Precipitation - 0.65 in16.5 mm - -
Hour Temp Dew Point Humidity Winds Wind Gusts Pressure Precip Precip Rate Daily Precip Total
10:25 AM 32.3°F0.2°C 30.0°F-1.1°C 91% Calm Calm 2.0 mph3.2 kmh 29.89 in1012.2 mb 0.03 in0.8 mm 0.00 in0.0 mm 0.65 in16.5 mm
10:20 AM 32.3°F0.2°C 30.0°F-1.1°C 91% Calm Calm 2.0 mph3.2 kmh 29.90 in1012.5 mb 0.03 in0.8 mm 0.12 in3.0 mm 0.65 in16.5 mm
10:15 AM 32.3°F0.2°C 30.0°F-1.1°C 91% Calm Calm 2.0 mph3.2 kmh 29.90 in1012.5 mb 0.02 in0.5 mm 0.00 in0.0 mm 0.64 in16.3 mm
10:10 AM 32.3°F0.2°C 30.0°F-1.1°C 91% Calm Calm 1.0 mph1.6 kmh 29.90 in1012.5 mb 0.02 in0.5 mm 0.12 in3.0 mm 0.64 in16.3 mm
10:05 AM 32.2°F0.1°C 29.9°F-1.2°C 91% Calm Calm 2.0 mph3.2 kmh 29.89 in1012.2 mb 0.01 in0.3 mm 0.00 in0.0 mm 0.63 in16.0 mm
10:00 AM 32.2°F0.1°C 29.9°F-1.2°C 91% 1.0 mph S1.6 kmh S 4.0 mph6.4 kmh 29.88 in1011.9 mb 0.01 in0.3 mm 0.01 in0.3 mm 0.63 in16.0 mm
09:55 AM 32.2°F0.1°C 29.9°F-1.2°C 91% 1.0 mph S1.6 kmh S 4.0 mph6.4 kmh 29.89 in1012.2 mb 0.00 in0.0 mm 0.00 in0.0 mm 0.62 in15.7 mm
09:50 AM 32.2°F0.1°C 29.9°F-1.2°C 91% Calm Calm 3.0 mph4.8 kmh 29.89 in1012.2 mb 0.00 in0.0 mm 0.00 in0.0 mm 0.62 in15.7 mm
09:45 AM 32.3°F0.2°C 30.0°F-1.1°C 91% Calm Calm -- 29.88 in1011.9 mb 0.00 in0.0 mm 0.00 in0.0 mm 0.62 in15.7 mm
09:40 AM 32.2°F0.1°C 29.9°F-1.2°C 91% Calm Calm -- 29.88 in1011.9 mb 0.00 in0.0 mm 0.00 in0.0 mm 0.62 in15.7 mm
09:35 AM 32.1°F0.1°C 29.8°F-1.2°C 91% Calm Calm -- 29.87 in1011.5 mb 0.00 in0.0 mm 0.00 in0.0 mm 0.62 in15.7 mm
09:30 AM 32.0°F0.0°C 29.7°F-1.3°C 91% Calm Calm -- 29.86 in1011.2 mb 0.00 in0.0 mm 0.00 in0.0 mm 0.62 in15.7 mm
09:25 AM 32.0°F0.0°C 29.7°F-1.3°C 91% Calm Calm -- 29.87 in1011.5 mb 0.00 in0.0 mm 0.00 in0.0 mm 0.62 in15.7 mm
09:20 AM 32.0°F0.0°C 29.7°F-1.3°C 91% Calm Calm -- 29.86 in1011.2 mb 0.00 in0.0 mm 0.00 in0.0 mm 0.62 in15.7 mm
09:15 AM 32.0°F0.0°C 29.7°F-1.3°C 91% Calm Calm -- 29.87 in1011.5 mb 0.01 in0.3 mm 0.00 in0.0 mm 0.62 in15.7 mm
09:10 AM 31.9°F-0.1°C 29.3°F-1.5°C 90% Calm Calm -- 29.86 in1011.2 mb 0.01 in0.3 mm 0.00 in0.0 mm 0.62 in15.7 mm
09:05 AM 31.9°F-0.1°C 29.3°F-1.5°C 90% Calm Calm -- 29.86 in1011.2 mb 0.01 in0.3 mm 0.00 in0.0 mm 0.62 in15.7 mm
09:00 AM 31.9°F-0.1°C 29.3°F-1.5°C 90% Calm Calm -- 29.86 in1011.2 mb 0.01 in0.3 mm 0.00 in0.0 mm 0.62 in15.7 mm
08:55 AM 31.9°F-0.1°C 29.3°F-1.5°C 90% Calm Calm -- 29.86 in1011.2 mb 0.01 in0.3 mm 0.00 in0.0 mm 0.62 in15.7 mm
08:50 AM 31.9°F-0.1°C 29.3°F-1.5°C 90% Calm Calm -- 29.86 in1011.2 mb 0.01 in0.3 mm 0.00 in0.0 mm 0.62 in15.7 mm
08:45 AM 32.0°F0.0°C 29.4°F-1.4°C 90% Calm Calm -- 29.87 in1011.5 mb 0.02 in0.5 mm 0.00 in0.0 mm 0.62 in15.7 mm
08:40 AM 32.1°F0.1°C 29.5°F-1.4°C 90% Calm Calm -- 29.87 in1011.5 mb 0.03 in0.8 mm 0.00 in0.0 mm 0.62 in15.7 mm
08:35 AM 32.2°F0.1°C 29.6°F-1.3°C 90% Calm Calm -- 29.87 in1011.5 mb 0.04 in1.0 mm 0.00 in0.0 mm 0.62 in15.7 mm
08:25 AM 32.4°F0.2°C 29.8°F-1.2°C 90% Calm Calm -- 29.86 in1011.2 mb 0.06 in1.5 mm 0.00 in0.0 mm 0.62 in15.7 mm
08:20 AM 32.6°F0.3°C 30.0°F-1.1°C 90% Calm Calm -- 29.85 in1010.8 mb 0.06 in1.5 mm 0.00 in0.0 mm 0.62 in15.7 mm
08:15 AM 32.8°F0.4°C 30.2°F-1.0°C 90% Calm Calm -- 29.85 in1010.8 mb 0.06 in1.5 mm 0.00 in0.0 mm 0.61 in15.5 mm
08:10 AM 33.1°F0.6°C 30.5°F-0.8°C 90% Calm Calm -- 29.84 in1010.5 mb 0.07 in1.8 mm 0.00 in0.0 mm 0.61 in15.5 mm
08:05 AM 33.2°F0.7°C 30.6°F-0.8°C 90% Calm Calm -- 29.83 in1010.2 mb 0.07 in1.8 mm 0.00 in0.0 mm 0.61 in15.5 mm
08:00 AM 33.4°F0.8°C 30.8°F-0.7°C 90% Calm Calm -- 29.82 in1009.8 mb 0.08 in2.0 mm 0.00 in0.0 mm 0.61 in15.5 mm
07:55 AM 33.5°F0.8°C 30.9°F-0.6°C 90% Calm Calm -- 29.81 in1009.5 mb 0.09 in2.3 mm 0.00 in0.0 mm 0.61 in15.5 mm
07:50 AM 33.7°F0.9°C 31.1°F-0.5°C 90% Calm Calm -- 29.81 in1009.5 mb 0.09 in2.3 mm 0.00 in0.0 mm 0.61 in15.5 mm
07:45 AM 33.8°F1.0°C 31.2°F-0.4°C 90% Calm Calm -- 29.82 in1009.8 mb 0.09 in2.3 mm 0.12 in3.0 mm 0.60 in15.2 mm
07:40 AM 33.9°F1.1°C 31.3°F-0.4°C 90% Calm Calm -- 29.83 in1010.2 mb 0.08 in2.0 mm 0.00 in0.0 mm 0.59 in15.0 mm
07:35 AM 34.0°F1.1°C 31.4°F-0.3°C 90% Calm Calm 1.0 mph1.6 kmh 29.82 in1009.8 mb 0.08 in2.0 mm 0.00 in0.0 mm 0.58 in14.7 mm
07:30 AM 34.0°F1.1°C 31.4°F-0.3°C 90% Calm Calm 1.0 mph1.6 kmh 29.81 in1009.5 mb 0.08 in2.0 mm 0.00 in0.0 mm 0.57 in14.5 mm
07:25 AM 34.0°F1.1°C 31.4°F-0.3°C 90% Calm Calm 1.0 mph1.6 kmh 29.80 in1009.1 mb 0.08 in2.0 mm 0.00 in0.0 mm 0.56 in14.2 mm
07:20 AM 33.9°F1.1°C 31.3°F-0.4°C 90% Calm Calm -- 29.80 in1009.1 mb 0.09 in2.3 mm 0.00 in0.0 mm 0.56 in14.2 mm
07:15 AM 33.8°F1.0°C 31.2°F-0.4°C 90% Calm Calm 2.0 mph3.2 kmh 29.80 in1009.1 mb 0.10 in2.5 mm 0.00 in0.0 mm 0.55 in14.0 mm
07:10 AM 33.8°F1.0°C 31.2°F-0.4°C 90% Calm Calm 2.0 mph3.2 kmh 29.80 in1009.1 mb 0.10 in2.5 mm 0.00 in0.0 mm 0.54 in13.7 mm
07:05 AM 33.7°F0.9°C 31.1°F-0.5°C 90% Calm Calm 1.0 mph1.6 kmh 29.80 in1009.1 mb 0.11 in2.8 mm 0.00 in0.0 mm 0.54 in13.7 mm
07:00 AM 33.6°F0.9°C 31.0°F-0.6°C 90% Calm Calm 1.0 mph1.6 kmh 29.80 in1009.1 mb 0.11 in2.8 mm 0.00 in0.0 mm 0.53 in13.5 mm
06:55 AM 33.5°F0.8°C 30.6°F-0.8°C 89% Calm Calm 1.0 mph1.6 kmh 29.80 in1009.1 mb 0.11 in2.8 mm 0.00 in0.0 mm 0.52 in13.2 mm
06:50 AM 33.5°F0.8°C 30.6°F-0.8°C 89% Calm Calm 2.0 mph3.2 kmh 29.79 in1008.8 mb 0.11 in2.8 mm 0.00 in0.0 mm 0.52 in13.2 mm
06:45 AM 33.6°F0.9°C 30.7°F-0.7°C 89% Calm Calm 2.0 mph3.2 kmh 29.78 in1008.5 mb 0.11 in2.8 mm 0.00 in0.0 mm 0.51 in13.0 mm
06:40 AM 33.9°F1.1°C 30.7°F-0.7°C 88% Calm Calm 2.0 mph3.2 kmh 29.79 in1008.8 mb 0.12 in3.0 mm 0.00 in0.0 mm 0.51 in13.0 mm
06:35 AM 34.2°F1.2°C 31.0°F-0.6°C 88% Calm Calm 4.0 mph6.4 kmh 29.79 in1008.8 mb 0.13 in3.3 mm 0.12 in3.0 mm 0.50 in12.7 mm
06:30 AM 34.7°F1.5°C 31.8°F-0.1°C 89% 1.0 mph WNW1.6 kmh WNW 4.0 mph6.4 kmh 29.79 in1008.8 mb 0.12 in3.0 mm 0.00 in0.0 mm 0.49 in12.4 mm
06:25 AM 35.1°F1.7°C 32.2°F0.1°C 89% Calm Calm 3.0 mph4.8 kmh 29.80 in1009.1 mb 0.12 in3.0 mm 0.00 in0.0 mm 0.48 in12.2 mm
06:20 AM 35.3°F1.8°C 32.4°F0.2°C 89% Calm Calm 3.0 mph4.8 kmh 29.79 in1008.8 mb 0.13 in3.3 mm 0.12 in3.0 mm 0.47 in11.9 mm
06:15 AM 35.5°F1.9°C 32.6°F0.3°C 89% Calm Calm 4.0 mph6.4 kmh 29.79 in1008.8 mb 0.12 in3.0 mm 0.00 in0.0 mm 0.45 in11.4 mm
06:10 AM 35.7°F2.1°C 32.5°F0.3°C 88% Calm Calm 4.0 mph6.4 kmh 29.79 in1008.8 mb 0.12 in3.0 mm 0.00 in0.0 mm 0.44 in11.2 mm
06:05 AM 35.8°F2.1°C 32.6°F0.3°C 88% Calm Calm 4.0 mph6.4 kmh 29.78 in1008.5 mb 0.13 in3.3 mm 0.12 in3.0 mm 0.43 in10.9 mm
06:00 AM 35.9°F2.2°C 32.7°F0.4°C 88% 1.0 mph WNW1.6 kmh WNW 5.0 mph8.0 kmh 29.78 in1008.5 mb 0.12 in3.0 mm 0.00 in0.0 mm 0.42 in10.7 mm
05:55 AM 36.2°F2.3°C 33.0°F0.6°C 88% 1.0 mph WNW1.6 kmh WNW 5.0 mph8.0 kmh 29.77 in1008.1 mb 0.12 in3.0 mm 0.00 in0.0 mm 0.41 in10.4 mm
05:50 AM 36.5°F2.5°C 33.3°F0.7°C 88% 2.0 mph NW3.2 kmh NW 10.0 mph16.1 kmh 29.78 in1008.5 mb 0.13 in3.3 mm 0.12 in3.0 mm 0.41 in10.4 mm
05:45 AM 36.9°F2.7°C 33.4°F0.8°C 87% 3.0 mph WNW4.8 kmh WNW 12.0 mph19.3 kmh 29.77 in1008.1 mb 0.12 in3.0 mm 0.12 in3.0 mm 0.40 in10.2 mm
05:40 AM 37.7°F3.2°C 34.2°F1.2°C 87% 3.0 mph WNW4.8 kmh WNW 12.0 mph19.3 kmh 29.77 in1008.1 mb 0.11 in2.8 mm 0.00 in0.0 mm 0.38 in9.7 mm
05:35 AM 38.5°F3.6°C 35.3°F1.8°C 88% 1.0 mph WNW1.6 kmh WNW 9.0 mph14.5 kmh 29.77 in1008.1 mb 0.11 in2.8 mm 0.12 in3.0 mm 0.37 in9.4 mm
05:30 AM 38.7°F3.7°C 35.7°F2.1°C 89% Calm Calm 1.0 mph1.6 kmh 29.77 in1008.1 mb 0.10 in2.5 mm 0.12 in3.0 mm 0.36 in9.1 mm
05:25 AM 38.7°F3.7°C 35.7°F2.1°C 89% Calm Calm 1.0 mph1.6 kmh 29.77 in1008.1 mb 0.09 in2.3 mm 0.00 in0.0 mm 0.35 in8.9 mm
05:20 AM 38.7°F3.7°C 35.5°F1.9°C 88% Calm Calm 7.0 mph11.3 kmh 29.77 in1008.1 mb 0.09 in2.3 mm 0.12 in3.0 mm 0.34 in8.6 mm
05:15 AM 38.7°F3.7°C 35.5°F1.9°C 88% 1.0 mph S1.6 kmh S 7.0 mph11.3 kmh 29.77 in1008.1 mb 0.08 in2.0 mm 0.12 in3.0 mm 0.33 in8.4 mm
05:10 AM 38.7°F3.7°C 35.5°F1.9°C 88% 1.0 mph S1.6 kmh S 5.0 mph8.0 kmh 29.77 in1008.1 mb 0.07 in1.8 mm 0.00 in0.0 mm 0.31 in7.9 mm
05:05 AM 38.8°F3.8°C 35.6°F2.0°C 88% 2.0 mph S3.2 kmh S 9.0 mph14.5 kmh 29.77 in1008.1 mb 0.07 in1.8 mm 0.00 in0.0 mm 0.30 in7.6 mm
05:00 AM 38.8°F3.8°C 35.6°F2.0°C 88% 2.0 mph S3.2 kmh S 9.0 mph14.5 kmh 29.76 in1007.8 mb 0.08 in2.0 mm 0.00 in0.0 mm 0.30 in7.6 mm
04:55 AM 38.9°F3.8°C 35.6°F2.0°C 88% 2.0 mph S3.2 kmh S 10.0 mph16.1 kmh 29.76 in1007.8 mb 0.08 in2.0 mm 0.00 in0.0 mm 0.29 in7.4 mm
04:50 AM 38.8°F3.8°C 35.3°F1.8°C 87% 3.0 mph S4.8 kmh S 10.0 mph16.1 kmh 29.76 in1007.8 mb 0.08 in2.0 mm 0.00 in0.0 mm 0.28 in7.1 mm
04:45 AM 38.9°F3.8°C 35.4°F1.9°C 87% 3.0 mph S4.8 kmh S 11.0 mph17.7 kmh 29.76 in1007.8 mb 0.09 in2.3 mm 0.12 in3.0 mm 0.28 in7.1 mm
04:40 AM 39.0°F3.9°C 35.2°F1.8°C 86% 3.0 mph SSW4.8 kmh SSW 11.0 mph17.7 kmh 29.76 in1007.8 mb 0.08 in2.0 mm 0.12 in3.0 mm 0.27 in6.9 mm
04:35 AM 39.0°F3.9°C 35.2°F1.8°C 86% 2.0 mph SSW3.2 kmh SSW 7.0 mph11.3 kmh 29.76 in1007.8 mb 0.07 in1.8 mm 0.00 in0.0 mm 0.26 in6.6 mm
04:30 AM 39.1°F3.9°C 35.3°F1.8°C 86% 2.0 mph SSW3.2 kmh SSW 10.0 mph16.1 kmh 29.75 in1007.5 mb 0.07 in1.8 mm 0.00 in0.0 mm 0.26 in6.6 mm
04:25 AM 39.1°F3.9°C 35.3°F1.8°C 86% 3.0 mph SW4.8 kmh SW 10.0 mph16.1 kmh 29.75 in1007.5 mb 0.07 in1.8 mm 0.12 in3.0 mm 0.26 in6.6 mm
04:20 AM 39.2°F4.0°C 35.4°F1.9°C 86% 4.0 mph SW6.4 kmh SW 11.0 mph17.7 kmh 29.75 in1007.5 mb 0.06 in1.5 mm 0.00 in0.0 mm 0.25 in6.4 mm
04:15 AM 39.3°F4.1°C 35.5°F1.9°C 86% 3.0 mph SW4.8 kmh SW 11.0 mph17.7 kmh 29.75 in1007.5 mb 0.07 in1.8 mm 0.12 in3.0 mm 0.25 in6.4 mm
04:10 AM 39.5°F4.2°C 35.7°F2.1°C 86% 2.0 mph SSW3.2 kmh SSW 7.0 mph11.3 kmh 29.76 in1007.8 mb 0.06 in1.5 mm 0.00 in0.0 mm 0.24 in6.1 mm
04:05 AM 39.6°F4.2°C 35.8°F2.1°C 86% 2.0 mph SSW3.2 kmh SSW 10.0 mph16.1 kmh 29.76 in1007.8 mb 0.06 in1.5 mm 0.00 in0.0 mm 0.23 in5.8 mm
04:00 AM 39.6°F4.2°C 35.8°F2.1°C 86% 4.0 mph SSW6.4 kmh SSW 10.0 mph16.1 kmh 29.75 in1007.5 mb 0.06 in1.5 mm 0.00 in0.0 mm 0.22 in5.6 mm
03:55 AM 39.6°F4.2°C 35.5°F1.9°C 85% 6.0 mph SSW9.7 kmh SSW 14.0 mph22.5 kmh 29.76 in1007.8 mb 0.06 in1.5 mm 0.12 in3.0 mm 0.21 in5.3 mm
03:50 AM 39.7°F4.3°C 35.6°F2.0°C 85% 7.0 mph SSW11.3 kmh SSW 16.0 mph25.7 kmh 29.76 in1007.8 mb 0.05 in1.3 mm 0.00 in0.0 mm 0.20 in5.1 mm
03:45 AM 39.7°F4.3°C 35.6°F2.0°C 85% 7.0 mph SSW11.3 kmh SSW 16.0 mph25.7 kmh 29.76 in1007.8 mb 0.05 in1.3 mm 0.00 in0.0 mm 0.19 in4.8 mm
03:40 AM 39.7°F4.3°C 35.3°F1.8°C 84% 7.0 mph S11.3 kmh S 15.0 mph24.1 kmh 29.76 in1007.8 mb 0.07 in1.8 mm 0.00 in0.0 mm 0.19 in4.8 mm
03:35 AM 39.7°F4.3°C 35.3°F1.8°C 84% 6.0 mph SSW9.7 kmh SSW 15.0 mph24.1 kmh 29.76 in1007.8 mb 0.07 in1.8 mm 0.00 in0.0 mm 0.19 in4.8 mm
03:30 AM 39.8°F4.3°C 35.7°F2.1°C 85% 6.0 mph S9.7 kmh S 15.0 mph24.1 kmh 29.76 in1007.8 mb 0.09 in2.3 mm 0.00 in0.0 mm 0.19 in4.8 mm
03:25 AM 39.8°F4.3°C 35.7°F2.1°C 85% 6.0 mph S9.7 kmh S 15.0 mph24.1 kmh 29.76 in1007.8 mb 0.11 in2.8 mm 0.00 in0.0 mm 0.19 in4.8 mm
03:20 AM 39.9°F4.4°C 35.8°F2.1°C 85% 5.0 mph S8.0 kmh S 14.0 mph22.5 kmh 29.76 in1007.8 mb 0.13 in3.3 mm 0.00 in0.0 mm 0.19 in4.8 mm
03:15 AM 39.8°F4.3°C 35.7°F2.1°C 85% 4.0 mph S6.4 kmh S 12.0 mph19.3 kmh 29.77 in1008.1 mb 0.14 in3.6 mm 0.00 in0.0 mm 0.18 in4.6 mm
03:10 AM 39.9°F4.4°C 35.8°F2.1°C 85% 5.0 mph SW8.0 kmh SW 18.0 mph29.0 kmh 29.77 in1008.1 mb 0.16 in4.1 mm 0.00 in0.0 mm 0.18 in4.6 mm
03:05 AM 39.9°F4.4°C 35.8°F2.1°C 85% 6.0 mph SW9.7 kmh SW 18.0 mph29.0 kmh 29.78 in1008.5 mb 0.16 in4.1 mm 0.00 in0.0 mm 0.17 in4.3 mm
03:00 AM 40.0°F4.4°C 35.9°F2.2°C 85% 6.0 mph SW9.7 kmh SW 13.0 mph20.9 kmh 29.78 in1008.5 mb 0.16 in4.1 mm 0.01 in0.3 mm 0.16 in4.1 mm
02:55 AM 40.3°F4.6°C 36.1°F2.3°C 85% 5.0 mph SW8.0 kmh SW 16.0 mph25.7 kmh 29.78 in1008.5 mb 0.15 in3.8 mm 0.12 in3.0 mm 0.15 in3.8 mm
02:50 AM 40.4°F4.7°C 36.2°F2.3°C 85% 6.0 mph SW9.7 kmh SW 19.0 mph30.6 kmh 29.78 in1008.5 mb 0.14 in3.6 mm 0.00 in0.0 mm 0.14 in3.6 mm
02:45 AM 40.7°F4.8°C 36.5°F2.5°C 85% 6.0 mph SW9.7 kmh SW 19.0 mph30.6 kmh 29.78 in1008.5 mb 0.14 in3.6 mm 0.24 in6.1 mm 0.14 in3.6 mm
02:40 AM 41.1°F5.1°C 36.9°F2.7°C 85% 6.0 mph SW9.7 kmh SW 16.0 mph25.7 kmh 29.77 in1008.1 mb 0.12 in3.0 mm 0.12 in3.0 mm 0.12 in3.0 mm
02:35 AM 41.5°F5.3°C 37.0°F2.8°C 84% 7.0 mph SW11.3 kmh SW 21.0 mph33.8 kmh 29.77 in1008.1 mb 0.11 in2.8 mm 0.12 in3.0 mm 0.11 in2.8 mm
02:30 AM 41.9°F5.5°C 37.4°F3.0°C 84% 7.0 mph SW11.3 kmh SW 21.0 mph33.8 kmh 29.77 in1008.1 mb 0.10 in2.5 mm 0.24 in6.1 mm 0.10 in2.5 mm
02:25 AM 42.3°F5.7°C 37.8°F3.2°C 84% 6.0 mph SW9.7 kmh SW 19.0 mph30.6 kmh 29.77 in1008.1 mb 0.08 in2.0 mm 0.24 in6.1 mm 0.08 in2.0 mm
02:20 AM 42.7°F5.9°C 37.9°F3.3°C 83% 5.0 mph SW8.0 kmh SW 19.0 mph30.6 kmh 29.77 in1008.1 mb 0.06 in1.5 mm 0.24 in6.1 mm 0.06 in1.5 mm
02:15 AM 43.1°F6.2°C 38.0°F3.3°C 82% 4.0 mph SW6.4 kmh SW 14.0 mph22.5 kmh 29.76 in1007.8 mb 0.04 in1.0 mm 0.24 in6.1 mm 0.04 in1.0 mm
02:10 AM 43.3°F6.3°C 37.9°F3.3°C 81% 2.0 mph SW3.2 kmh SW 7.0 mph11.3 kmh 29.77 in1008.1 mb 0.02 in0.5 mm 0.24 in6.1 mm 0.02 in0.5 mm
02:05 AM 43.3°F6.3°C 37.5°F3.1°C 80% 1.0 mph S1.6 kmh S 4.0 mph6.4 kmh 29.75 in1007.5 mb 0.00 in0.0 mm 0.00 in0.0 mm 0.05 in1.3 mm
02:00 AM 43.3°F6.3°C 37.5°F3.1°C 80% Calm Calm 1.0 mph1.6 kmh 29.75 in1007.5 mb 0.00 in0.0 mm 0.00 in0.0 mm 0.05 in1.3 mm
01:55 AM 43.3°F6.3°C 37.5°F3.1°C 80% 1.0 mph S1.6 kmh S 6.0 mph9.7 kmh 29.74 in1007.1 mb 0.00 in0.0 mm 0.00 in0.0 mm 0.05 in1.3 mm
01:50 AM 43.3°F6.3°C 37.2°F2.9°C 79% 2.0 mph S3.2 kmh S 6.0 mph9.7 kmh 29.74 in1007.1 mb 0.00 in0.0 mm 0.00 in0.0 mm 0.05 in1.3 mm
01:45 AM 43.2°F6.2°C 37.1°F2.8°C 79% 2.0 mph S3.2 kmh S 5.0 mph8.0 kmh 29.74 in1007.1 mb 0.00 in0.0 mm 0.00 in0.0 mm 0.05 in1.3 mm
01:40 AM 43.2°F6.2°C 37.1°F2.8°C 79% 3.0 mph S4.8 kmh S 7.0 mph11.3 kmh 29.74 in1007.1 mb 0.00 in0.0 mm 0.00 in0.0 mm 0.05 in1.3 mm
01:35 AM 43.2°F6.2°C 37.1°F2.8°C 79% 3.0 mph S4.8 kmh S 7.0 mph11.3 kmh 29.74 in1007.1 mb 0.00 in0.0 mm 0.00 in0.0 mm 0.05 in1.3 mm
01:30 AM 43.2°F6.2°C 37.1°F2.8°C 79% 4.0 mph S6.4 kmh S 12.0 mph19.3 kmh 29.74 in1007.1 mb 0.00 in0.0 mm 0.00 in0.0 mm 0.05 in1.3 mm
01:25 AM 43.1°F6.2°C 36.7°F2.6°C 78% 5.0 mph S8.0 kmh S 12.0 mph19.3 kmh 29.74 in1007.1 mb 0.00 in0.0 mm 0.00 in0.0 mm 0.05 in1.3 mm
01:20 AM 43.0°F6.1°C 36.9°F2.7°C 79% 4.0 mph S6.4 kmh S 10.0 mph16.1 kmh 29.74 in1007.1 mb 0.00 in0.0 mm 0.00 in0.0 mm 0.05 in1.3 mm
01:15 AM 42.8°F6.0°C 36.7°F2.6°C 79% 5.0 mph S8.0 kmh S 10.0 mph16.1 kmh 29.74 in1007.1 mb 0.00 in0.0 mm 0.00 in0.0 mm 0.05 in1.3 mm
01:10 AM 42.8°F6.0°C 36.7°F2.6°C 79% 5.0 mph S8.0 kmh S 11.0 mph17.7 kmh 29.75 in1007.5 mb 0.00 in0.0 mm 0.00 in0.0 mm 0.05 in1.3 mm
01:05 AM 42.8°F6.0°C 37.1°F2.8°C 80% 5.0 mph S8.0 kmh S 11.0 mph17.7 kmh 29.75 in1007.5 mb 0.00 in0.0 mm 0.00 in0.0 mm 0.05 in1.3 mm
01:00 AM 42.8°F6.0°C 37.1°F2.8°C 80% 4.0 mph S6.4 kmh S 9.0 mph14.5 kmh 29.76 in1007.8 mb 0.00 in0.0 mm 0.00 in0.0 mm 0.05 in1.3 mm
12:55 AM 42.9°F6.1°C 37.2°F2.9°C 80% 3.0 mph S4.8 kmh S 9.0 mph14.5 kmh 29.76 in1007.8 mb 0.00 in0.0 mm 0.00 in0.0 mm 0.05 in1.3 mm
12:50 AM 42.9°F6.1°C 37.2°F2.9°C 80% 3.0 mph S4.8 kmh S 8.0 mph12.9 kmh 29.76 in1007.8 mb 0.00 in0.0 mm 0.00 in0.0 mm 0.05 in1.3 mm
12:45 AM 42.9°F6.1°C 37.2°F2.9°C 80% 3.0 mph S4.8 kmh S 8.0 mph12.9 kmh 29.76 in1007.8 mb 0.00 in0.0 mm 0.00 in0.0 mm 0.05 in1.3 mm
12:40 AM 42.8°F6.0°C 37.4°F3.0°C 81% 2.0 mph S3.2 kmh S 8.0 mph12.9 kmh 29.76 in1007.8 mb 0.00 in0.0 mm 0.00 in0.0 mm 0.05 in1.3 mm
12:35 AM 42.8°F6.0°C 37.7°F3.2°C 82% 2.0 mph S3.2 kmh S 9.0 mph14.5 kmh 29.76 in1007.8 mb 0.00 in0.0 mm 0.00 in0.0 mm 0.05 in1.3 mm
12:30 AM 42.8°F6.0°C 37.7°F3.2°C 82% 2.0 mph S3.2 kmh S 9.0 mph14.5 kmh 29.76 in1007.8 mb 0.01 in0.3 mm 0.00 in0.0 mm 0.05 in1.3 mm
12:25 AM 43.0°F6.1°C 38.2°F3.4°C 83% 1.0 mph S1.6 kmh S 10.0 mph16.1 kmh 29.76 in1007.8 mb 0.02 in0.5 mm 0.00 in0.0 mm 0.05 in1.3 mm
12:20 AM 43.1°F6.2°C 38.3°F3.5°C 83% 3.0 mph S4.8 kmh S 12.0 mph19.3 kmh 29.76 in1007.8 mb 0.03 in0.8 mm 0.00 in0.0 mm 0.05 in1.3 mm
12:15 AM 43.1°F6.2°C 38.6°F3.7°C 84% 4.0 mph S6.4 kmh S 12.0 mph19.3 kmh 29.76 in1007.8 mb 0.04 in1.0 mm 0.00 in0.0 mm 0.05 in1.3 mm
12:10 AM 43.2°F6.2°C 38.7°F3.7°C 84% 4.0 mph S6.4 kmh S 12.0 mph19.3 kmh 29.76 in1007.8 mb 0.05 in1.3 mm 0.00 in0.0 mm 0.05 in1.3 mm
12:05 AM 43.2°F6.2°C 38.7°F3.7°C 84% 4.0 mph S6.4 kmh S 12.0 mph19.3 kmh 29.76 in1007.8 mb 0.05 in1.3 mm 0.00 in0.0 mm 0.05 in1.3 mm
12:00 AM 43.2°F6.2°C 38.7°F3.7°C 84% 4.0 mph S6.4 kmh S 12.0 mph19.3 kmh 29.77 in1008.1 mb 0.05 in1.3 mm 0.00 in0.0 mm 0.05 in1.3 mm